Time;durP1;ratioP1;P1;durP2;ratioP2;P2;SDS_P1;SDS_P2;PMS_P1;PMS_P2;Temp;Humidity;BMP_temperature;BMP_pressure;BME280_temperature;BME280_humidity;BME280_pressure;Samples;Min_cycle;Max_cycle;Signal;HPM_P1;HPM_P2
2023/04/28 00:01:17;;;;;;;13.13;9.37;;;;;;;;;;5016012;28;20501;-44
2023/04/28 00:03:43;;;;;;;15.70;8.87;;;;;;;;;;5021112;28;20422;-45
2023/04/28 00:06:10;;;;;;;18.17;9.90;;;;;;;;;;5022729;28;20421;-44
2023/04/28 00:08:36;;;;;;;10.27;7.80;;;;;;;;;;5019899;28;20872;-45
2023/04/28 00:11:02;;;;;;;14.73;8.27;;;;;;;;;;5011863;28;20433;-45
2023/04/28 00:13:28;;;;;;;15.77;8.80;;;;;;;;;;5013704;28;20424;-45
2023/04/28 00:15:55;;;;;;;12.70;8.03;;;;;;;;;;5022480;28;20959;-45
2023/04/28 00:18:21;;;;;;;13.90;8.80;;;;;;;;;;5023485;28;20859;-45
2023/04/28 00:20:47;;;;;;;12.10;7.93;;;;;;;;;;5020932;28;20502;-44
2023/04/28 00:23:13;;;;;;;13.60;8.23;;;;;;;;;;5019486;28;20458;-45
2023/04/28 00:25:39;;;;;;;11.97;8.73;;;;;;;;;;5017337;28;20426;-44
2023/04/28 00:28:05;;;;;;;10.93;8.57;;;;;;;;;;5009016;28;20461;-46
2023/04/28 00:30:31;;;;;;;16.90;8.43;;;;;;;;;;5018537;28;20934;-45
2023/04/28 00:32:57;;;;;;;13.40;8.57;;;;;;;;;;5020889;28;20838;-45
2023/04/28 00:35:23;;;;;;;12.23;8.87;;;;;;;;;;5020052;28;20758;-45
2023/04/28 00:37:49;;;;;;;12.20;9.30;;;;;;;;;;5019390;28;20460;-45
2023/04/28 00:40:15;;;;;;;17.60;9.83;;;;;;;;;;5014477;28;20438;-45
2023/04/28 00:42:41;;;;;;;16.20;8.70;;;;;;;;;;5009061;28;20431;-43
2023/04/28 00:45:07;;;;;;;13.40;8.70;;;;;;;;;;5022700;28;20452;-45
2023/04/28 00:47:33;;;;;;;13.00;8.80;;;;;;;;;;5018835;28;20478;-44
2023/04/28 00:50:00;;;;;;;14.60;8.00;;;;;;;;;;5019323;28;20414;-43
2023/04/28 00:52:27;;;;;;;12.07;7.60;;;;;;;;;;5015609;28;20412;-45
2023/04/28 00:54:53;;;;;;;13.20;8.37;;;;;;;;;;5018502;28;20427;-44
2023/04/28 00:57:19;;;;;;;13.40;8.23;;;;;;;;;;5015203;28;20851;-44
2023/04/28 00:59:45;;;;;;;14.73;9.37;;;;;;;;;;5020545;28;20426;-44
2023/04/28 01:02:18;;;;;;;16.80;9.03;;;;;;;;;;5021781;28;20419;-45
2023/04/28 01:04:45;;;;;;;16.37;10.07;;;;;;;;;;5019728;28;20445;-45
2023/04/28 01:07:11;;;;;;;16.77;9.43;;;;;;;;;;5012500;28;20418;-43
2023/04/28 01:09:37;;;;;;;17.17;8.33;;;;;;;;;;5011559;28;20866;-44
2023/04/28 01:12:03;;;;;;;12.27;8.30;;;;;;;;;;5022780;28;20410;-45
2023/04/28 01:14:29;;;;;;;16.87;9.60;;;;;;;;;;5021373;28;20410;-44
2023/04/28 01:16:55;;;;;;;13.10;9.27;;;;;;;;;;5021757;28;20466;-45
2023/04/28 01:19:22;;;;;;;17.27;9.33;;;;;;;;;;5017434;28;20463;-45
2023/04/28 01:21:51;;;;;;;13.40;8.50;;;;;;;;;;5016724;28;20453;-44
2023/04/28 01:24:17;;;;;;;15.40;10.37;;;;;;;;;;5010734;28;20884;-43
2023/04/28 01:26:44;;;;;;;15.20;9.30;;;;;;;;;;5022125;28;20496;-43
2023/04/28 01:29:10;;;;;;;20.53;9.30;;;;;;;;;;5019183;28;20462;-43
2023/04/28 01:31:36;;;;;;;14.67;9.93;;;;;;;;;;5015902;28;20426;-43
2023/04/28 01:34:02;;;;;;;16.87;10.93;;;;;;;;;;5021501;28;20512;-43
2023/04/28 01:36:28;;;;;;;12.57;8.67;;;;;;;;;;5015941;28;20487;-45
2023/04/28 01:38:54;;;;;;;18.67;11.40;;;;;;;;;;5006223;28;20457;-44
2023/04/28 01:41:21;;;;;;;16.47;10.30;;;;;;;;;;5021482;28;20433;-45
2023/04/28 01:43:47;;;;;;;14.77;9.77;;;;;;;;;;5020156;28;20436;-45
2023/04/28 01:46:13;;;;;;;16.20;9.43;;;;;;;;;;5016656;28;20901;-45
2023/04/28 01:48:39;;;;;;;15.97;10.67;;;;;;;;;;5017445;28;20855;-44
2023/04/28 01:51:05;;;;;;;18.20;9.80;;;;;;;;;;5009463;28;20427;-43
2023/04/28 01:53:31;;;;;;;14.13;9.63;;;;;;;;;;5014919;28;20406;-43
2023/04/28 01:55:57;;;;;;;18.30;10.27;;;;;;;;;;5030796;28;20497;-45
2023/04/28 01:58:23;;;;;;;15.33;10.37;;;;;;;;;;5031572;28;20906;-44
2023/04/28 02:00:49;;;;;;;15.77;10.07;;;;;;;;;;5031950;28;20408;-45
2023/04/28 02:03:15;;;;;;;16.77;10.13;;;;;;;;;;5031848;28;20414;-45
2023/04/28 02:05:41;;;;;;;14.77;9.77;;;;;;;;;;5031907;28;20894;-44
2023/04/28 02:08:07;;;;;;;18.00;11.73;;;;;;;;;;5031427;28;21048;-43
2023/04/28 02:10:33;;;;;;;13.93;9.87;;;;;;;;;;5011918;28;20438;-44
2023/04/28 02:12:59;;;;;;;15.00;10.63;;;;;;;;;;5011390;28;20430;-46
2023/04/28 02:15:25;;;;;;;15.50;10.10;;;;;;;;;;5012219;28;20488;-45
2023/04/28 02:17:51;;;;;;;18.07;11.77;;;;;;;;;;5011814;28;20496;-44
2023/04/28 02:20:17;;;;;;;17.87;10.47;;;;;;;;;;5011894;28;20525;-44
2023/04/28 02:22:43;;;;;;;18.67;9.53;;;;;;;;;;5012004;28;20553;-44
2023/04/28 02:25:09;;;;;;;14.60;10.50;;;;;;;;;;5011970;28;20553;-45
2023/04/28 02:27:36;;;;;;;20.33;11.63;;;;;;;;;;5011771;28;20469;-44
2023/04/28 02:30:05;;;;;;;16.50;10.37;;;;;;;;;;5011755;28;20415;-44
2023/04/28 02:32:31;;;;;;;14.30;9.90;;;;;;;;;;5011952;28;20918;-43
2023/04/28 02:34:57;;;;;;;16.43;10.83;;;;;;;;;;5011947;28;20403;-43
2023/04/28 02:37:23;;;;;;;15.27;10.37;;;;;;;;;;5011816;28;20461;-45
2023/04/28 02:39:49;;;;;;;18.87;11.80;;;;;;;;;;5009688;28;20451;-45
2023/04/28 02:42:15;;;;;;;18.97;11.70;;;;;;;;;;5010640;28;20525;-45
2023/04/28 02:44:41;;;;;;;17.30;10.23;;;;;;;;;;5011856;28;20403;-45
2023/04/28 02:47:07;;;;;;;15.53;10.50;;;;;;;;;;5011706;28;20433;-45
2023/04/28 02:49:33;;;;;;;21.27;12.07;;;;;;;;;;5011593;28;20926;-46
2023/04/28 02:51:59;;;;;;;14.60;10.40;;;;;;;;;;5011758;28;20421;-44
2023/04/28 02:54:28;;;;;;;23.30;11.60;;;;;;;;;;5010807;28;20431;-43
2023/04/28 02:56:54;;;;;;;19.47;11.30;;;;;;;;;;5023897;28;20970;-44
2023/04/28 02:59:20;;;;;;;16.13;10.47;;;;;;;;;;5017584;28;20798;-44
2023/04/28 03:01:47;;;;;;;16.63;10.90;;;;;;;;;;5025556;28;20414;-45
2023/04/28 03:04:13;;;;;;;19.07;10.77;;;;;;;;;;5021306;28;20426;-44
2023/04/28 03:06:39;;;;;;;15.83;11.30;;;;;;;;;;5024634;28;20464;-44
2023/04/28 03:09:05;;;;;;;16.70;11.60;;;;;;;;;;5016450;28;20466;-45
2023/04/28 03:11:31;;;;;;;19.83;11.97;;;;;;;;;;5013363;28;20431;-45
2023/04/28 03:13:57;;;;;;;14.13;10.37;;;;;;;;;;5028699;28;20413;-45
2023/04/28 03:16:23;;;;;;;18.50;11.80;;;;;;;;;;5026724;28;20406;-44
2023/04/28 03:18:49;;;;;;;15.60;10.70;;;;;;;;;;5022643;28;20509;-46
2023/04/28 03:21:15;;;;;;;15.37;11.43;;;;;;;;;;5022915;28;20418;-45
2023/04/28 03:23:41;;;;;;;13.93;11.10;;;;;;;;;;5021319;28;20426;-44
2023/04/28 03:26:08;;;;;;;20.40;12.40;;;;;;;;;;5014038;28;20421;-45
2023/04/28 03:28:34;;;;;;;22.70;12.80;;;;;;;;;;5010973;28;21090;-45
2023/04/28 03:31:00;;;;;;;24.80;12.27;;;;;;;;;;5023491;28;20413;-45
2023/04/28 03:33:26;;;;;;;17.50;11.17;;;;;;;;;;5023254;28;20406;-44
2023/04/28 03:35:53;;;;;;;18.83;11.27;;;;;;;;;;5022912;28;20414;-44
2023/04/28 03:38:19;;;;;;;19.53;13.00;;;;;;;;;;5018740;28;20445;-45
2023/04/28 03:40:45;;;;;;;21.13;12.90;;;;;;;;;;5014474;28;20940;-43
2023/04/28 03:43:11;;;;;;;22.13;12.90;;;;;;;;;;5010898;28;20794;-45
2023/04/28 03:45:37;;;;;;;19.77;12.27;;;;;;;;;;5024542;28;20433;-45
2023/04/28 03:48:03;;;;;;;19.97;12.27;;;;;;;;;;5019123;28;20841;-45
2023/04/28 03:50:29;;;;;;;21.30;11.37;;;;;;;;;;5023652;28;20498;-44
2023/04/28 03:52:55;;;;;;;19.60;11.60;;;;;;;;;;5022986;28;20404;-45
2023/04/28 03:55:21;;;;;;;17.10;12.27;;;;;;;;;;5022471;28;20400;-44
2023/04/28 03:57:47;;;;;;;18.50;12.43;;;;;;;;;;5014351;28;20446;-43
2023/04/28 04:00:14;;;;;;;19.40;11.90;;;;;;;;;;5020649;28;20415;-43
2023/04/28 04:02:39;;;;;;;19.47;11.57;;;;;;;;;;5024122;28;20414;-43
2023/04/28 04:05:05;;;;;;;15.07;11.40;;;;;;;;;;5016346;28;20853;-45
2023/04/28 04:07:31;;;;;;;19.40;12.70;;;;;;;;;;5014653;28;20870;-44
2023/04/28 04:09:57;;;;;;;17.90;11.53;;;;;;;;;;5016952;28;20427;-46
2023/04/28 04:12:23;;;;;;;17.73;12.63;;;;;;;;;;5019260;28;20431;-44
2023/04/28 04:14:49;;;;;;;20.47;12.20;;;;;;;;;;5022078;28;20440;-44
2023/04/28 04:17:15;;;;;;;19.10;11.50;;;;;;;;;;5022326;28;20923;-45
2023/04/28 04:19:41;;;;;;;15.13;11.37;;;;;;;;;;5020294;28;20788;-44
2023/04/28 04:22:07;;;;;;;17.40;11.10;;;;;;;;;;5013050;28;20425;-44
2023/04/28 04:24:33;;;;;;;14.90;10.70;;;;;;;;;;5010873;28;20459;-43
2023/04/28 04:26:59;;;;;;;18.70;11.23;;;;;;;;;;5022478;28;20555;-44
2023/04/28 04:29:25;;;;;;;15.70;11.03;;;;;;;;;;5022446;28;20552;-44
2023/04/28 04:31:51;;;;;;;19.70;12.53;;;;;;;;;;5021746;28;20411;-44
2023/04/28 04:34:17;;;;;;;21.30;10.97;;;;;;;;;;5018742;28;20411;-46
2023/04/28 04:36:43;;;;;;;17.80;13.10;;;;;;;;;;5017197;28;20418;-44
2023/04/28 04:39:09;;;;;;;22.53;11.77;;;;;;;;;;5009721;28;20437;-44
2023/04/28 04:41:35;;;;;;;22.17;11.50;;;;;;;;;;5021940;28;20445;-44
2023/04/28 04:44:01;;;;;;;15.13;11.70;;;;;;;;;;5016034;28;20438;-44
2023/04/28 04:46:27;;;;;;;15.17;9.80;;;;;;;;;;5018966;28;20423;-44
2023/04/28 04:48:53;;;;;;;20.73;10.90;;;;;;;;;;5021308;28;20466;-43
2023/04/28 04:51:19;;;;;;;15.80;10.80;;;;;;;;;;5015374;28;20408;-45
2023/04/28 04:53:45;;;;;;;20.23;10.80;;;;;;;;;;5013759;28;20414;-46
2023/04/28 04:56:11;;;;;;;12.77;9.20;;;;;;;;;;5025624;28;20405;-43
2023/04/28 04:58:37;;;;;;;12.93;10.37;;;;;;;;;;5033370;28;20422;-43
2023/04/28 05:01:03;;;;;;;15.10;10.50;;;;;;;;;;5032959;28;20394;-43
2023/04/28 05:03:29;;;;;;;16.17;10.33;;;;;;;;;;5032833;28;20409;-43
2023/04/28 05:05:55;;;;;;;14.00;9.50;;;;;;;;;;5032923;28;20394;-43
2023/04/28 05:08:21;;;;;;;13.47;9.50;;;;;;;;;;5032534;28;20465;-43
2023/04/28 05:10:47;;;;;;;16.40;10.53;;;;;;;;;;5026505;28;20927;-43
2023/04/28 05:13:13;;;;;;;11.63;9.13;;;;;;;;;;5012904;28;20764;-43
2023/04/28 05:15:39;;;;;;;10.40;9.03;;;;;;;;;;5012444;28;20430;-44
2023/04/28 05:18:09;;;;;;;13.00;8.67;;;;;;;;;;5012289;28;20457;-43
2023/04/28 05:20:35;;;;;;;14.70;8.53;;;;;;;;;;5012790;28;20523;-44
2023/04/28 05:23:01;;;;;;;9.87;8.87;;;;;;;;;;5012791;28;20938;-43
2023/04/28 05:25:27;;;;;;;14.73;8.93;;;;;;;;;;5012702;28;20766;-42
2023/04/28 05:27:53;;;;;;;14.83;10.70;;;;;;;;;;5012465;28;20463;-43
2023/04/28 05:30:19;;;;;;;13.00;9.87;;;;;;;;;;5012512;28;20398;-42
2023/04/28 05:32:45;;;;;;;12.93;9.23;;;;;;;;;;5012547;28;20457;-43
2023/04/28 05:35:12;;;;;;;15.80;10.40;;;;;;;;;;5012582;28;20403;-43
2023/04/28 05:37:38;;;;;;;13.50;10.03;;;;;;;;;;5012349;28;20581;-43
2023/04/28 05:40:05;;;;;;;14.97;9.93;;;;;;;;;;5012278;28;20895;-42
2023/04/28 05:42:31;;;;;;;15.10;10.37;;;;;;;;;;5010004;28;20443;-44
2023/04/28 05:44:57;;;;;;;14.73;10.03;;;;;;;;;;5011830;28;20442;-43
2023/04/28 05:47:23;;;;;;;16.67;9.60;;;;;;;;;;5012601;28;20407;-42
2023/04/28 05:49:48;;;;;;;11.30;8.77;;;;;;;;;;5012285;28;20459;-43
2023/04/28 05:52:14;;;;;;;14.87;10.40;;;;;;;;;;5012301;28;20450;-42
2023/04/28 05:54:40;;;;;;;10.33;8.63;;;;;;;;;;5012299;28;20395;-43
2023/04/28 05:57:07;;;;;;;10.10;8.53;;;;;;;;;;5012245;28;20407;-43
2023/04/28 05:59:33;;;;;;;10.67;9.20;;;;;;;;;;5011826;28;20798;-43
2023/04/28 06:01:58;;;;;;;10.30;8.90;;;;;;;;;;5012128;28;20443;-43
2023/04/28 06:04:25;;;;;;;13.10;9.70;;;;;;;;;;5012187;28;20770;-43
2023/04/28 06:06:51;;;;;;;10.47;8.93;;;;;;;;;;5012090;28;20772;-43
2023/04/28 06:09:17;;;;;;;15.43;10.87;;;;;;;;;;5011692;28;20462;-44
2023/04/28 06:11:43;;;;;;;12.60;8.77;;;;;;;;;;5010206;28;20432;-42
2023/04/28 06:14:09;;;;;;;11.07;8.80;;;;;;;;;;5012127;28;20435;-42
2023/04/28 06:16:35;;;;;;;12.17;9.53;;;;;;;;;;5011319;28;20801;-42
2023/04/28 06:19:01;;;;;;;11.80;8.40;;;;;;;;;;5011618;28;20954;-43
2023/04/28 06:21:28;;;;;;;14.13;10.47;;;;;;;;;;5011974;28;20430;-42
2023/04/28 06:23:54;;;;;;;9.30;8.13;;;;;;;;;;5012074;28;20400;-42
2023/04/28 06:26:20;;;;;;;13.30;9.87;;;;;;;;;;5012055;28;20718;-42
2023/04/28 06:28:46;;;;;;;13.60;10.27;;;;;;;;;;5012836;28;20466;-42
2023/04/28 06:31:12;;;;;;;12.23;9.33;;;;;;;;;;5015409;28;20407;-43
2023/04/28 06:33:37;;;;;;;13.50;9.90;;;;;;;;;;5015299;28;20407;-43
2023/04/28 06:36:04;;;;;;;12.47;9.37;;;;;;;;;;5015362;28;20403;-42
2023/04/28 06:38:30;;;;;;;10.90;9.27;;;;;;;;;;5015041;28;20434;-43
2023/04/28 06:40:56;;;;;;;13.60;10.63;;;;;;;;;;5014515;28;20920;-43
2023/04/28 06:43:22;;;;;;;13.63;9.50;;;;;;;;;;5015330;28;20400;-43
2023/04/28 06:45:48;;;;;;;14.03;11.23;;;;;;;;;;5014871;28;20518;-43
2023/04/28 06:48:14;;;;;;;14.67;10.83;;;;;;;;;;5015162;28;20505;-43
2023/04/28 06:50:40;;;;;;;15.47;9.70;;;;;;;;;;5015387;28;20400;-43
2023/04/28 06:53:06;;;;;;;12.73;9.10;;;;;;;;;;5015524;28;20408;-43
2023/04/28 06:55:32;;;;;;;12.40;8.20;;;;;;;;;;5020297;28;20474;-45
2023/04/28 06:57:58;;;;;;;9.17;7.73;;;;;;;;;;5013329;28;20442;-44
2023/04/28 07:00:24;;;;;;;17.60;9.10;;;;;;;;;;5022725;28;20416;-44
2023/04/28 07:02:50;;;;;;;11.13;7.90;;;;;;;;;;5023141;28;20423;-43
2023/04/28 07:05:16;;;;;;;9.87;8.30;;;;;;;;;;5025756;28;20420;-43
2023/04/28 07:07:42;;;;;;;12.10;7.80;;;;;;;;;;5020644;28;20459;-43
2023/04/28 07:10:09;;;;;;;11.27;7.63;;;;;;;;;;5020770;28;20859;-43
2023/04/28 07:12:35;;;;;;;7.43;6.53;;;;;;;;;;5018503;28;20425;-43
2023/04/28 07:15:01;;;;;;;9.13;8.10;;;;;;;;;;5031211;28;20907;-43
2023/04/28 07:17:27;;;;;;;10.00;7.73;;;;;;;;;;5026239;28;20410;-42
2023/04/28 07:19:53;;;;;;;11.63;8.13;;;;;;;;;;5019626;28;20437;-43
2023/04/28 07:22:19;;;;;;;12.80;8.67;;;;;;;;;;5021961;28;20458;-43
2023/04/28 07:24:45;;;;;;;14.57;9.97;;;;;;;;;;5018134;28;20472;-43
2023/04/28 07:27:11;;;;;;;10.27;8.27;;;;;;;;;;5016224;28;20417;-43
2023/04/28 07:29:37;;;;;;;12.40;8.83;;;;;;;;;;5017719;28;20571;-43
2023/04/28 07:32:09;;;;;;;10.70;8.30;;;;;;;;;;5021305;28;20506;-43
2023/04/28 07:34:36;;;;;;;10.00;7.87;;;;;;;;;;5023973;28;20479;-43
2023/04/28 07:37:02;;;;;;;11.07;8.03;;;;;;;;;;5016277;28;20472;-43
2023/04/28 07:39:30;;;;;;;10.03;7.63;;;;;;;;;;5013506;28;20910;-43
2023/04/28 07:41:57;;;;;;;7.50;6.27;;;;;;;;;;5024092;28;20433;-43
2023/04/28 07:44:23;;;;;;;11.00;7.33;;;;;;;;;;5017639;28;20417;-44
2023/04/28 07:46:49;;;;;;;9.90;7.70;;;;;;;;;;5021161;28;20704;-45
2023/04/28 07:49:15;;;;;;;9.67;7.10;;;;;;;;;;5021922;28;20970;-46
2023/04/28 07:51:41;;;;;;;7.33;6.60;;;;;;;;;;5020979;28;20439;-46
2023/04/28 07:54:07;;;;;;;8.47;6.33;;;;;;;;;;5012846;28;20415;-45
2023/04/28 07:56:33;;;;;;;10.40;6.87;;;;;;;;;;5010777;28;20758;-46
2023/04/28 07:59:00;;;;;;;9.50;6.50;;;;;;;;;;5022732;28;20783;-46
2023/04/28 08:01:25;;;;;;;8.97;6.30;;;;;;;;;;5025853;28;20383;-45
2023/04/28 08:03:52;;;;;;;8.40;6.90;;;;;;;;;;5033880;28;20413;-46
2023/04/28 08:06:18;;;;;;;8.30;6.90;;;;;;;;;;5032936;28;20402;-46
2023/04/28 08:08:44;;;;;;;7.40;5.80;;;;;;;;;;5032996;28;20434;-46
2023/04/28 08:11:10;;;;;;;6.73;6.03;;;;;;;;;;5029214;28;20778;-46
2023/04/28 08:13:36;;;;;;;7.57;5.77;;;;;;;;;;5013362;28;20756;-45
2023/04/28 08:16:02;;;;;;;10.57;6.10;;;;;;;;;;5014062;28;20382;-44
2023/04/28 08:18:28;;;;;;;6.47;5.77;;;;;;;;;;5015354;28;20524;-44
2023/04/28 08:20:54;;;;;;;7.00;5.67;;;;;;;;;;5029252;28;20436;-44
2023/04/28 08:23:20;;;;;;;9.97;6.57;;;;;;;;;;5023051;28;20916;-44
2023/04/28 08:25:47;;;;;;;6.93;6.20;;;;;;;;;;5017345;28;20428;-46
2023/04/28 08:28:13;;;;;;;7.10;6.40;;;;;;;;;;5020503;28;20472;-45
2023/04/28 08:30:39;;;;;;;7.00;6.30;;;;;;;;;;5018410;28;20417;-44
2023/04/28 08:33:05;;;;;;;8.20;6.33;;;;;;;;;;5015374;28;20390;-43
2023/04/28 08:35:32;;;;;;;8.83;6.60;;;;;;;;;;5020998;28;20416;-45
2023/04/28 08:37:58;;;;;;;8.60;6.20;;;;;;;;;;5032224;28;20409;-45
2023/04/28 08:40:25;;;;;;;11.77;7.00;;;;;;;;;;5032725;28;20379;-44
2023/04/28 08:42:51;;;;;;;9.97;6.40;;;;;;;;;;5018484;28;20497;-45
2023/04/28 08:45:17;;;;;;;7.40;5.97;;;;;;;;;;5012676;28;20427;-45
2023/04/28 08:47:48;;;;;;;7.67;6.70;;;;;;;;;;5013177;28;20451;-44
2023/04/28 08:50:14;;;;;;;9.43;5.67;;;;;;;;;;5012959;28;20445;-44
2023/04/28 08:52:41;;;;;;;9.47;6.50;;;;;;;;;;5012782;28;20486;-47
2023/04/28 08:55:08;;;;;;;8.00;6.80;;;;;;;;;;5013403;28;20413;-45
2023/04/28 08:57:37;;;;;;;6.80;6.03;;;;;;;;;;5012944;28;20745;-45
2023/04/28 09:00:04;;;;;;;10.10;6.03;;;;;;;;;;5012849;28;20743;-44
2023/04/28 09:02:30;;;;;;;9.00;6.93;;;;;;;;;;5012915;28;20415;-45
2023/04/28 09:04:56;;;;;;;7.60;6.30;;;;;;;;;;5013135;28;20415;-46
2023/04/28 09:07:22;;;;;;;8.40;6.73;;;;;;;;;;5013374;28;20901;-44
2023/04/28 09:09:48;;;;;;;8.90;6.50;;;;;;;;;;5012793;28;20405;-46
2023/04/28 09:12:14;;;;;;;8.23;6.53;;;;;;;;;;5014565;28;20430;-43
2023/04/28 09:14:40;;;;;;;11.30;6.67;;;;;;;;;;5012860;28;20417;-46
2023/04/28 09:17:13;;;;;;;6.87;5.47;;;;;;;;;;5012097;28;20777;-45
2023/04/28 09:19:41;;;;;;;10.13;6.90;;;;;;;;;;5013427;28;20473;-45
2023/04/28 09:22:08;;;;;;;12.53;6.90;;;;;;;;;;5013872;28;20921;-45
2023/04/28 09:24:35;;;;;;;9.00;6.57;;;;;;;;;;5014098;28;20800;-45
2023/04/28 09:27:03;;;;;;;9.20;6.10;;;;;;;;;;5013569;28;20930;-45
2023/04/28 09:29:29;;;;;;;9.77;6.00;;;;;;;;;;5013421;28;20471;-44
2023/04/28 09:32:12;;;;;;;11.37;7.00;;;;;;;;;;5013189;28;20406;-44
2023/04/28 09:34:48;;;;;;;9.53;6.77;;;;;;;;;;5012662;28;20887;-43
2023/04/28 09:37:15;;;;;;;10.40;6.60;;;;;;;;;;5012541;28;20382;-42
2023/04/28 09:39:41;;;;;;;10.60;7.00;;;;;;;;;;5012269;28;20425;-43
2023/04/28 09:42:07;;;;;;;9.07;6.73;;;;;;;;;;5011775;28;20408;-42
2023/04/28 09:44:33;;;;;;;8.40;6.17;;;;;;;;;;5012484;28;20415;-42
2023/04/28 09:47:00;;;;;;;8.37;6.90;;;;;;;;;;5012262;28;20456;-42
2023/04/28 09:49:26;;;;;;;8.70;6.70;;;;;;;;;;5012053;28;20971;-42
2023/04/28 09:51:52;;;;;;;11.97;7.03;;;;;;;;;;5013229;28;20403;-45
2023/04/28 09:54:19;;;;;;;8.63;6.40;;;;;;;;;;5013660;28;20387;-44
2023/04/28 09:56:47;;;;;;;11.10;7.20;;;;;;;;;;5013666;28;20455;-44
2023/04/28 09:59:13;;;;;;;10.73;8.60;;;;;;;;;;5011059;28;20516;-46
2023/04/28 10:01:40;;;;;;;8.17;6.70;;;;;;;;;;5011785;28;20435;-46
2023/04/28 10:04:06;;;;;;;7.97;6.83;;;;;;;;;;5012124;28;20416;-45
2023/04/28 10:06:35;;;;;;;9.00;6.97;;;;;;;;;;5012523;28;20855;-46
2023/04/28 10:09:02;;;;;;;8.17;6.20;;;;;;;;;;5012246;28;20465;-46
2023/04/28 10:11:29;;;;;;;8.37;6.70;;;;;;;;;;5012963;28;20377;-45
2023/04/28 10:13:55;;;;;;;6.90;5.47;;;;;;;;;;5011342;28;20431;-45
2023/04/28 10:16:22;;;;;;;7.80;5.87;;;;;;;;;;5012962;28;20427;-46
2023/04/28 10:18:49;;;;;;;7.67;6.07;;;;;;;;;;5011721;28;20505;-45
2023/04/28 10:21:17;;;;;;;7.63;6.83;;;;;;;;;;5012503;28;20503;-45
2023/04/28 10:23:53;;;;;;;8.07;6.30;;;;;;;;;;5012566;28;20453;-46
2023/04/28 10:26:20;;;;;;;6.80;5.67;;;;;;;;;;5012088;28;20824;-43
2023/04/28 10:28:51;;;;;;;7.33;5.93;;;;;;;;;;5011695;28;21049;-42
2023/04/28 10:31:21;;;;;;;11.47;6.30;;;;;;;;;;5012724;28;20409;-46
2023/04/28 10:33:48;;;;;;;7.07;6.03;;;;;;;;;;5010748;28;20401;-46
2023/04/28 10:36:33;;;;;;;9.37;6.20;;;;;;;;;;5011795;28;20374;-46
2023/04/28 10:39:10;;;;;;;8.20;6.53;;;;;;;;;;5011442;28;20430;-45
2023/04/28 10:41:37;;;;;;;12.50;6.30;;;;;;;;;;5012002;28;20425;-43
2023/04/28 10:44:23;;;;;;;7.47;6.30;;;;;;;;;;5009530;28;20954;-43
2023/04/28 10:47:05;;;;;;;7.40;6.17;;;;;;;;;;5010966;28;20974;-43
2023/04/28 10:49:50;;;;;;;8.70;6.67;;;;;;;;;;5010711;28;20523;-44
2023/04/28 10:52:34;;;;;;;7.97;5.83;;;;;;;;;;5011050;28;20392;-43
2023/04/28 10:55:23;;;;;;;6.97;6.27;;;;;;;;;;5011831;28;20402;-43
2023/04/28 10:58:09;;;;;;;13.10;6.47;;;;;;;;;;5012045;28;20411;-46
2023/04/28 11:00:35;;;;;;;9.60;7.10;;;;;;;;;;5011729;28;20417;-47
2023/04/28 11:03:01;;;;;;;6.63;5.63;;;;;;;;;;5011654;28;20496;-46
2023/04/28 11:05:30;;;;;;;7.47;6.07;;;;;;;;;;5011737;28;20403;-45
2023/04/28 11:08:15;;;;;;;9.43;6.60;;;;;;;;;;5011363;28;20512;-45
2023/04/28 11:11:00;;;;;;;6.83;5.50;;;;;;;;;;5011633;28;20438;-44
2023/04/28 11:13:33;;;;;;;7.90;6.70;;;;;;;;;;5010707;28;20439;-46
2023/04/28 11:16:05;;;;;;;8.50;6.33;;;;;;;;;;5014215;28;20810;-46
2023/04/28 11:18:50;;;;;;;8.40;6.97;;;;;;;;;;5014494;28;20451;-46
2023/04/28 11:21:17;;;;;;;8.57;6.47;;;;;;;;;;5015016;28;20401;-45
2023/04/28 11:23:43;;;;;;;10.43;7.50;;;;;;;;;;5015058;28;20411;-47
2023/04/28 11:26:10;;;;;;;11.97;7.17;;;;;;;;;;5014983;28;20425;-46
2023/04/28 11:28:36;;;;;;;7.83;6.90;;;;;;;;;;5014424;28;20485;-46
2023/04/28 11:31:19;;;;;;;8.83;6.97;;;;;;;;;;5014724;28;20399;-47
2023/04/28 11:33:51;;;;;;;7.67;6.70;;;;;;;;;;5015004;28;20381;-46
2023/04/28 11:36:28;;;;;;;10.97;7.60;;;;;;;;;;5014747;28;20403;-44
2023/04/28 11:38:55;;;;;;;8.77;6.43;;;;;;;;;;5014496;28;20427;-47
2023/04/28 11:41:21;;;;;;;8.37;7.57;;;;;;;;;;5013680;28;20582;-46
2023/04/28 11:43:47;;;;;;;9.10;7.47;;;;;;;;;;5013889;28;20437;-46
2023/04/28 11:46:20;;;;;;;11.23;7.40;;;;;;;;;;5014788;28;20729;-45
2023/04/28 11:48:47;;;;;;;10.40;8.20;;;;;;;;;;5014135;28;20466;-45
2023/04/28 11:51:32;;;;;;;10.83;8.40;;;;;;;;;;5014500;28;20395;-44
2023/04/28 11:53:59;;;;;;;12.07;8.67;;;;;;;;;;5014298;28;20926;-47
2023/04/28 11:56:25;;;;;;;9.67;8.63;;;;;;;;;;5019722;28;20442;-44
2023/04/28 11:59:04;;;;;;;11.00;8.13;;;;;;;;;;4994750;28;20420;-45
2023/04/28 12:01:31;;;;;;;9.50;8.07;;;;;;;;;;4994751;28;20404;-47
2023/04/28 12:03:57;;;;;;;9.40;8.20;;;;;;;;;;4994412;28;20952;-44
2023/04/28 12:06:23;;;;;;;10.07;8.57;;;;;;;;;;4993597;28;20402;-45
2023/04/28 12:08:51;;;;;;;9.57;8.37;;;;;;;;;;4992266;28;20462;-45
2023/04/28 12:11:17;;;;;;;11.10;9.27;;;;;;;;;;4996502;28;20423;-46
2023/04/28 12:13:43;;;;;;;10.20;8.30;;;;;;;;;;5012834;28;20941;-45
2023/04/28 12:16:09;;;;;;;9.60;8.43;;;;;;;;;;5012903;28;20502;-46
2023/04/28 12:18:35;;;;;;;11.20;9.27;;;;;;;;;;5013478;28;20476;-45
2023/04/28 12:21:02;;;;;;;11.20;9.27;;;;;;;;;;5013596;28;20414;-47
2023/04/28 12:23:30;;;;;;;11.40;8.73;;;;;;;;;;5013901;28;20500;-46
2023/04/28 12:25:56;;;;;;;10.70;8.30;;;;;;;;;;5012817;28;20409;-45
2023/04/28 12:28:22;;;;;;;10.10;8.80;;;;;;;;;;5013449;28;20544;-47
2023/04/28 12:30:48;;;;;;;8.73;7.90;;;;;;;;;;5013703;28;20489;-45
2023/04/28 12:33:28;;;;;;;10.13;7.93;;;;;;;;;;5013683;28;20912;-45
2023/04/28 12:35:55;;;;;;;10.00;7.83;;;;;;;;;;5013752;28;20380;-46
2023/04/28 12:38:21;;;;;;;8.50;7.70;;;;;;;;;;5013246;28;20419;-45
2023/04/28 12:40:47;;;;;;;9.40;8.20;;;;;;;;;;5013563;28;20388;-46
2023/04/28 12:43:14;;;;;;;9.27;8.33;;;;;;;;;;5011920;28;20459;-46
2023/04/28 12:45:40;;;;;;;11.00;8.67;;;;;;;;;;5013433;28;20378;-46
2023/04/28 12:48:06;;;;;;;10.53;8.57;;;;;;;;;;5012933;28;20442;-46
2023/04/28 12:50:32;;;;;;;9.13;8.17;;;;;;;;;;5013447;28;20387;-46
2023/04/28 12:52:58;;;;;;;8.60;7.43;;;;;;;;;;5013528;28;20425;-46
2023/04/28 12:55:25;;;;;;;11.80;10.13;;;;;;;;;;5013539;28;20404;-45
2023/04/28 12:57:51;;;;;;;17.70;10.63;;;;;;;;;;5032861;28;20385;-46
2023/04/28 13:00:22;;;;;;;17.40;10.13;;;;;;;;;;5032739;28;20437;-47
2023/04/28 13:02:47;;;;;;;11.10;10.00;;;;;;;;;;5032893;28;20480;-46
2023/04/28 13:05:13;;;;;;;10.90;9.57;;;;;;;;;;5032868;28;20435;-46
2023/04/28 13:07:39;;;;;;;15.37;11.20;;;;;;;;;;5032605;28;20409;-47
2023/04/28 13:10:06;;;;;;;14.70;11.03;;;;;;;;;;5032693;28;20895;-46
2023/04/28 13:12:32;;;;;;;14.07;10.33;;;;;;;;;;5024346;28;20406;-46
2023/04/28 13:14:59;;;;;;;17.27;12.20;;;;;;;;;;5012739;28;20403;-45
2023/04/28 13:17:26;;;;;;;13.63;11.70;;;;;;;;;;5012649;28;20409;-44
2023/04/28 13:19:52;;;;;;;11.70;9.90;;;;;;;;;;5012673;28;20453;-45
2023/04/28 13:22:18;;;;;;;10.30;9.10;;;;;;;;;;5012481;28;20415;-44
2023/04/28 13:24:44;;;;;;;13.63;9.37;;;;;;;;;;5012795;28;20403;-45
2023/04/28 13:27:10;;;;;;;10.97;9.77;;;;;;;;;;5012812;28;20902;-45
2023/04/28 13:29:36;;;;;;;11.17;10.03;;;;;;;;;;5012393;28;20468;-46
2023/04/28 13:32:04;;;;;;;12.37;9.90;;;;;;;;;;5012664;28;20617;-46
2023/04/28 13:34:30;;;;;;;10.43;9.20;;;;;;;;;;5012673;28;20467;-47
2023/04/28 13:36:56;;;;;;;11.80;9.90;;;;;;;;;;5012179;28;20426;-46
2023/04/28 13:39:22;;;;;;;13.00;9.77;;;;;;;;;;5012549;28;20828;-46
2023/04/28 13:41:48;;;;;;;9.47;8.30;;;;;;;;;;5012597;28;20414;-46
2023/04/28 13:44:14;;;;;;;9.70;8.70;;;;;;;;;;5010462;28;20435;-46
2023/04/28 13:46:41;;;;;;;7.30;6.60;;;;;;;;;;5011386;28;20462;-47
2023/04/28 13:49:08;;;;;;;8.50;7.70;;;;;;;;;;5012098;28;20524;-47
2023/04/28 13:51:34;;;;;;;9.40;8.00;;;;;;;;;;5012561;28;20784;-44
2023/04/28 13:54:03;;;;;;;10.33;9.33;;;;;;;;;;5012366;28;20400;-46
2023/04/28 13:56:30;;;;;;;9.53;8.63;;;;;;;;;;5012232;28;20399;-46
2023/04/28 13:58:56;;;;;;;10.30;9.30;;;;;;;;;;5011871;28;20502;-46
2023/04/28 14:01:23;;;;;;;11.57;10.40;;;;;;;;;;5012270;28;20430;-48
2023/04/28 14:03:50;;;;;;;9.63;8.73;;;;;;;;;;5012276;28;20419;-46
2023/04/28 14:06:16;;;;;;;10.57;8.50;;;;;;;;;;5012292;28;20435;-45
2023/04/28 14:08:42;;;;;;;9.90;8.93;;;;;;;;;;5012236;28;20466;-44
2023/04/28 14:11:08;;;;;;;9.77;8.93;;;;;;;;;;5012199;28;20404;-45
2023/04/28 14:13:34;;;;;;;9.30;8.40;;;;;;;;;;5010251;28;20423;-46
2023/04/28 14:16:00;;;;;;;8.70;7.90;;;;;;;;;;5012121;28;20465;-44
2023/04/28 14:18:27;;;;;;;9.00;8.13;;;;;;;;;;5011670;28;20451;-44
2023/04/28 14:20:53;;;;;;;12.40;8.10;;;;;;;;;;5012305;28;20486;-46
2023/04/28 14:23:19;;;;;;;8.57;7.87;;;;;;;;;;5012078;28;20446;-47
2023/04/28 14:25:46;;;;;;;10.23;9.03;;;;;;;;;;5012064;28;20450;-46
2023/04/28 14:28:12;;;;;;;12.90;8.60;;;;;;;;;;5011464;28;20470;-46
2023/04/28 14:30:38;;;;;;;8.13;7.43;;;;;;;;;;5012226;28;20399;-46